AF-0003 weather

Charikar Airport
Kapisa Province, Afghanistan

Public forecast

Using degrees Celsius for public forecast. Weather courtesy of forecast.io.

METAR (pilot weather report)

Closest report is Hamid Karzai International Airport, 35.0 nm (64.9 km) S. Retrieved 2019/08/23 20:50 UTC (46 minutes ago):

OAKB 232050Z 30005KT CAVOK 21/07 Q1015 NOSIG RMK A3000 BLU BLU

TAF (pilot weather forecast)

Forecast is more than 6 hours old.

Closest forecast is Bagram Air Base, 12.1 nm (22.4 km) SSW. Retrieved 2019/08/23 15:00 UTC (7 hours ago):

TAF OAIX 231500Z 2315/2421 09009KT 9999 SCT130 BKN250 QNH2988INS TEMPO 2315/2318 09015G25KT 520009 BECMG 2317/2318 03006KT 9999 FEW150 FEW250 QNH2994INS BECMG 2320/2321 VRB06KT 9999 SKC QNH2999INS BECMG 2405/2406 09009KT 9999 FEW150 QNH2981INS BECMG 2409/2410 12012G18KT 9999 FEW100 SCT150 BKN250 QNH2982INS TEMPO 2411/2414 12015G25KT VCTS SCT100 BKN150CB BECMG 2416/2417 02009KT 9999 FEW150 FEW250 QNH2992INS BECMG 2420/2421 VRB06KT 9999 SKC QNH2995INS TX33/2410Z TN16/2401Z